sensor_id;sensor_type;location;lat;lon;timestamp;P1;durP1;ratioP1;P2;durP2;ratioP2
8964;SDS011;4517;49.020;12.066;2022-07-01T02:44:51;3.60;;;3.30;;
8964;SDS011;4517;49.020;12.066;2022-07-01T02:47:21;5.10;;;3.90;;
8964;SDS011;4517;49.020;12.066;2022-07-01T02:49:47;4.43;;;3.80;;
8964;SDS011;4517;49.020;12.066;2022-07-01T02:52:13;4.83;;;3.50;;
8964;SDS011;4517;49.020;12.066;2022-07-01T02:54:40;7.27;;;3.63;;
8964;SDS011;4517;49.020;12.066;2022-07-01T02:57:06;3.80;;;3.43;;
8964;SDS011;4517;49.020;12.066;2022-07-01T02:59:31;11.50;;;3.60;;
8964;SDS011;4517;49.020;12.066;2022-07-01T03:01:57;4.63;;;3.77;;
8964;SDS011;4517;49.020;12.066;2022-07-01T03:04:23;4.80;;;3.47;;
8964;SDS011;4517;49.020;12.066;2022-07-01T03:06:48;4.93;;;3.40;;
8964;SDS011;4517;49.020;12.066;2022-07-01T03:09:14;7.07;;;4.23;;
8964;SDS011;4517;49.020;12.066;2022-07-01T03:11:39;4.23;;;3.50;;
8964;SDS011;4517;49.020;12.066;2022-07-01T03:14:05;3.97;;;3.67;;
8964;SDS011;4517;49.020;12.066;2022-07-01T03:16:30;3.70;;;3.20;;
8964;SDS011;4517;49.020;12.066;2022-07-01T03:18:56;5.53;;;3.30;;
8964;SDS011;4517;49.020;12.066;2022-07-01T03:21:22;3.90;;;3.00;;
8964;SDS011;4517;49.020;12.066;2022-07-01T03:23:48;3.20;;;3.00;;
8964;SDS011;4517;49.020;12.066;2022-07-01T03:26:13;10.37;;;3.03;;
8964;SDS011;4517;49.020;12.066;2022-07-01T03:28:40;6.60;;;3.13;;
8964;SDS011;4517;49.020;12.066;2022-07-01T03:31:05;3.20;;;2.90;;
8964;SDS011;4517;49.020;12.066;2022-07-01T03:33:31;4.30;;;2.93;;
8964;SDS011;4517;49.020;12.066;2022-07-01T03:35:57;4.40;;;3.20;;
8964;SDS011;4517;49.020;12.066;2022-07-01T03:38:22;3.40;;;2.97;;
8964;SDS011;4517;49.020;12.066;2022-07-01T03:40:48;7.80;;;3.23;;
8964;SDS011;4517;49.020;12.066;2022-07-01T03:43:14;2.93;;;2.63;;
8964;SDS011;4517;49.020;12.066;2022-07-01T03:45:39;3.17;;;2.87;;
8964;SDS011;4517;49.020;12.066;2022-07-01T03:48:05;3.40;;;3.10;;
8964;SDS011;4517;49.020;12.066;2022-07-01T03:50:31;3.53;;;3.23;;
8964;SDS011;4517;49.020;12.066;2022-07-01T03:52:56;4.33;;;2.73;;
8964;SDS011;4517;49.020;12.066;2022-07-01T03:55:41;3.97;;;2.37;;
8964;SDS011;4517;49.020;12.066;2022-07-01T03:58:07;3.30;;;2.77;;
8964;SDS011;4517;49.020;12.066;2022-07-01T04:00:33;3.57;;;3.10;;
8964;SDS011;4517;49.020;12.066;2022-07-01T04:03:00;3.23;;;2.90;;
8964;SDS011;4517;49.020;12.066;2022-07-01T04:05:26;2.97;;;2.43;;
8964;SDS011;4517;49.020;12.066;2022-07-01T04:07:52;4.07;;;2.83;;
8964;SDS011;4517;49.020;12.066;2022-07-01T04:10:17;3.50;;;2.70;;
8964;SDS011;4517;49.020;12.066;2022-07-01T04:12:43;2.70;;;2.43;;
8964;SDS011;4517;49.020;12.066;2022-07-01T04:15:09;2.33;;;2.13;;
8964;SDS011;4517;49.020;12.066;2022-07-01T04:17:35;4.10;;;2.40;;
8964;SDS011;4517;49.020;12.066;2022-07-01T04:20:01;2.47;;;2.23;;
8964;SDS011;4517;49.020;12.066;2022-07-01T04:22:26;6.63;;;3.13;;
8964;SDS011;4517;49.020;12.066;2022-07-01T04:24:58;10.00;;;2.70;;
8964;SDS011;4517;49.020;12.066;2022-07-01T04:27:25;1.93;;;1.83;;
8964;SDS011;4517;49.020;12.066;2022-07-01T04:29:51;3.67;;;1.80;;
8964;SDS011;4517;49.020;12.066;2022-07-01T04:32:17;2.33;;;2.13;;
8964;SDS011;4517;49.020;12.066;2022-07-01T04:34:42;17.47;;;6.50;;
8964;SDS011;4517;49.020;12.066;2022-07-01T04:37:08;21.90;;;8.27;;
8964;SDS011;4517;49.020;12.066;2022-07-01T04:39:34;18.10;;;6.50;;
8964;SDS011;4517;49.020;12.066;2022-07-01T04:41:59;10.03;;;3.37;;
8964;SDS011;4517;49.020;12.066;2022-07-01T04:44:29;39.40;;;14.20;;
8964;SDS011;4517;49.020;12.066;2022-07-01T04:46:59;70.70;;;17.70;;
8964;SDS011;4517;49.020;12.066;2022-07-01T04:49:26;18.10;;;6.97;;
8964;SDS011;4517;49.020;12.066;2022-07-01T04:51:52;22.97;;;6.90;;
8964;SDS011;4517;49.020;12.066;2022-07-01T04:54:18;16.70;;;6.03;;
8964;SDS011;4517;49.020;12.066;2022-07-01T04:56:44;7.93;;;3.40;;
8964;SDS011;4517;49.020;12.066;2022-07-01T04:59:10;4.50;;;2.83;;
8964;SDS011;4517;49.020;12.066;2022-07-01T05:01:40;2.40;;;2.20;;
8964;SDS011;4517;49.020;12.066;2022-07-01T05:04:07;7.10;;;3.30;;
8964;SDS011;4517;49.020;12.066;2022-07-01T05:06:32;3.53;;;2.20;;
8964;SDS011;4517;49.020;12.066;2022-07-01T05:08:59;2.07;;;1.83;;
8964;SDS011;4517;49.020;12.066;2022-07-01T05:11:25;2.40;;;2.13;;
8964;SDS011;4517;49.020;12.066;2022-07-01T05:13:50;4.03;;;2.40;;
8964;SDS011;4517;49.020;12.066;2022-07-01T05:16:16;2.33;;;2.10;;
8964;SDS011;4517;49.020;12.066;2022-07-01T05:18:42;3.37;;;2.30;;
8964;SDS011;4517;49.020;12.066;2022-07-01T05:21:26;2.63;;;2.43;;
8964;SDS011;4517;49.020;12.066;2022-07-01T05:24:10;3.60;;;2.30;;
8964;SDS011;4517;49.020;12.066;2022-07-01T05:26:36;2.47;;;2.27;;
8964;SDS011;4517;49.020;12.066;2022-07-01T05:29:02;2.73;;;2.10;;
8964;SDS011;4517;49.020;12.066;2022-07-01T05:31:28;2.67;;;2.00;;
8964;SDS011;4517;49.020;12.066;2022-07-01T05:33:53;2.17;;;1.97;;
8964;SDS011;4517;49.020;12.066;2022-07-01T05:36:19;2.13;;;1.93;;
8964;SDS011;4517;49.020;12.066;2022-07-01T05:38:45;2.23;;;2.03;;
8964;SDS011;4517;49.020;12.066;2022-07-01T05:41:10;4.00;;;2.20;;
8964;SDS011;4517;49.020;12.066;2022-07-01T05:43:36;4.23;;;2.70;;
8964;SDS011;4517;49.020;12.066;2022-07-01T05:46:02;2.73;;;2.30;;
8964;SDS011;4517;49.020;12.066;2022-07-01T05:48:27;4.23;;;2.50;;
8964;SDS011;4517;49.020;12.066;2022-07-01T05:50:53;2.40;;;1.70;;
8964;SDS011;4517;49.020;12.066;2022-07-01T05:53:19;1.70;;;1.60;;
8964;SDS011;4517;49.020;12.066;2022-07-01T05:55:44;3.00;;;2.10;;
8964;SDS011;4517;49.020;12.066;2022-07-01T05:58:10;3.63;;;2.03;;
8964;SDS011;4517;49.020;12.066;2022-07-01T06:00:37;2.83;;;1.83;;
8964;SDS011;4517;49.020;12.066;2022-07-01T06:03:06;2.90;;;2.17;;
8964;SDS011;4517;49.020;12.066;2022-07-01T06:05:32;2.57;;;2.00;;
8964;SDS011;4517;49.020;12.066;2022-07-01T06:07:58;4.37;;;2.07;;
8964;SDS011;4517;49.020;12.066;2022-07-01T06:10:24;2.40;;;2.20;;
8964;SDS011;4517;49.020;12.066;2022-07-01T06:12:49;3.40;;;2.17;;
8964;SDS011;4517;49.020;12.066;2022-07-01T06:15:15;2.80;;;2.33;;
8964;SDS011;4517;49.020;12.066;2022-07-01T06:17:41;2.10;;;1.90;;
8964;SDS011;4517;49.020;12.066;2022-07-01T06:20:07;9.93;;;2.33;;
8964;SDS011;4517;49.020;12.066;2022-07-01T06:22:33;2.50;;;1.63;;
8964;SDS011;4517;49.020;12.066;2022-07-01T06:24:59;5.30;;;1.60;;
8964;SDS011;4517;49.020;12.066;2022-07-01T06:27:25;2.53;;;1.83;;
8964;SDS011;4517;49.020;12.066;2022-07-01T06:29:51;2.40;;;2.20;;
8964;SDS011;4517;49.020;12.066;2022-07-01T06:32:18;2.57;;;2.37;;
8964;SDS011;4517;49.020;12.066;2022-07-01T06:34:44;2.23;;;1.93;;
8964;SDS011;4517;49.020;12.066;2022-07-01T06:37:09;4.07;;;2.27;;
8964;SDS011;4517;49.020;12.066;2022-07-01T06:39:35;3.43;;;2.17;;
8964;SDS011;4517;49.020;12.066;2022-07-01T06:42:01;4.27;;;2.20;;
8964;SDS011;4517;49.020;12.066;2022-07-01T06:44:27;2.47;;;2.27;;
8964;SDS011;4517;49.020;12.066;2022-07-01T06:46:52;3.33;;;1.93;;
8964;SDS011;4517;49.020;12.066;2022-07-01T06:49:18;2.37;;;2.17;;
8964;SDS011;4517;49.020;12.066;2022-07-01T06:51:43;4.70;;;2.03;;
8964;SDS011;4517;49.020;12.066;2022-07-01T06:54:09;1.57;;;1.47;;
8964;SDS011;4517;49.020;12.066;2022-07-01T06:56:35;2.40;;;2.20;;
8964;SDS011;4517;49.020;12.066;2022-07-01T06:59:00;3.23;;;1.80;;
8964;SDS011;4517;49.020;12.066;2022-07-01T07:01:27;2.73;;;2.30;;
8964;SDS011;4517;49.020;12.066;2022-07-01T07:03:53;2.93;;;2.00;;
8964;SDS011;4517;49.020;12.066;2022-07-01T07:06:19;2.27;;;2.07;;
8964;SDS011;4517;49.020;12.066;2022-07-01T07:08:46;3.73;;;1.90;;
8964;SDS011;4517;49.020;12.066;2022-07-01T07:11:11;4.40;;;2.20;;
8964;SDS011;4517;49.020;12.066;2022-07-01T07:13:39;6.57;;;2.43;;
8964;SDS011;4517;49.020;12.066;2022-07-01T07:16:06;2.57;;;2.17;;
8964;SDS011;4517;49.020;12.066;2022-07-01T07:18:31;6.83;;;2.33;;
8964;SDS011;4517;49.020;12.066;2022-07-01T07:20:57;2.63;;;2.10;;
8964;SDS011;4517;49.020;12.066;2022-07-01T07:23:23;3.07;;;2.47;;
8964;SDS011;4517;49.020;12.066;2022-07-01T07:25:48;3.93;;;2.03;;
8964;SDS011;4517;49.020;12.066;2022-07-01T07:28:14;2.30;;;1.63;;
8964;SDS011;4517;49.020;12.066;2022-07-01T07:30:40;1.97;;;1.80;;
8964;SDS011;4517;49.020;12.066;2022-07-01T07:33:06;2.83;;;1.30;;
8964;SDS011;4517;49.020;12.066;2022-07-01T07:35:32;1.67;;;1.57;;
8964;SDS011;4517;49.020;12.066;2022-07-01T07:37:58;2.40;;;1.77;;
8964;SDS011;4517;49.020;12.066;2022-07-01T07:40:23;3.60;;;1.30;;
8964;SDS011;4517;49.020;12.066;2022-07-01T07:42:49;1.60;;;1.50;;
8964;SDS011;4517;49.020;12.066;2022-07-01T07:45:15;1.30;;;1.20;;
8964;SDS011;4517;49.020;12.066;2022-07-01T07:47:42;0.90;;;0.87;;
8964;SDS011;4517;49.020;12.066;2022-07-01T07:50:10;1.00;;;0.90;;
8964;SDS011;4517;49.020;12.066;2022-07-01T07:52:37;2.33;;;1.13;;
8964;SDS011;4517;49.020;12.066;2022-07-01T07:55:03;0.90;;;0.90;;
8964;SDS011;4517;49.020;12.066;2022-07-01T07:57:30;1.17;;;0.93;;
8964;SDS011;4517;49.020;12.066;2022-07-01T07:59:56;2.40;;;1.43;;
8964;SDS011;4517;49.020;12.066;2022-07-01T08:02:22;0.90;;;0.80;;
8964;SDS011;4517;49.020;12.066;2022-07-01T08:04:47;1.07;;;0.97;;
8964;SDS011;4517;49.020;12.066;2022-07-01T08:07:13;1.10;;;1.00;;
8964;SDS011;4517;49.020;12.066;2022-07-01T08:09:39;0.90;;;0.80;;
8964;SDS011;4517;49.020;12.066;2022-07-01T08:12:07;0.80;;;0.77;;
8964;SDS011;4517;49.020;12.066;2022-07-01T08:14:32;0.80;;;0.80;;
8964;SDS011;4517;49.020;12.066;2022-07-01T08:16:58;1.70;;;0.93;;
8964;SDS011;4517;49.020;12.066;2022-07-01T08:19:24;0.87;;;0.87;;
8964;SDS011;4517;49.020;12.066;2022-07-01T08:21:49;0.90;;;0.80;;
8964;SDS011;4517;49.020;12.066;2022-07-01T08:24:15;1.40;;;1.30;;
8964;SDS011;4517;49.020;12.066;2022-07-01T08:26:40;1.23;;;1.00;;
8964;SDS011;4517;49.020;12.066;2022-07-01T08:29:06;1.33;;;1.20;;
8964;SDS011;4517;49.020;12.066;2022-07-01T08:31:32;1.70;;;1.27;;
8964;SDS011;4517;49.020;12.066;2022-07-01T08:33:58;1.17;;;1.07;;
8964;SDS011;4517;49.020;12.066;2022-07-01T08:36:23;1.30;;;1.20;;
8964;SDS011;4517;49.020;12.066;2022-07-01T08:38:49;3.03;;;1.37;;
8964;SDS011;4517;49.020;12.066;2022-07-01T08:41:15;1.20;;;1.00;;
8964;SDS011;4517;49.020;12.066;2022-07-01T08:43:41;2.03;;;1.00;;
8964;SDS011;4517;49.020;12.066;2022-07-01T08:46:06;2.03;;;1.00;;
8964;SDS011;4517;49.020;12.066;2022-07-01T08:48:33;1.30;;;0.90;;
8964;SDS011;4517;49.020;12.066;2022-07-01T08:50:59;1.10;;;1.00;;
8964;SDS011;4517;49.020;12.066;2022-07-01T08:53:29;1.10;;;0.90;;
8964;SDS011;4517;49.020;12.066;2022-07-01T08:55:56;1.73;;;0.80;;
8964;SDS011;4517;49.020;12.066;2022-07-01T08:58:40;1.10;;;0.93;;
8964;SDS011;4517;49.020;12.066;2022-07-01T09:01:13;1.37;;;1.10;;
8964;SDS011;4517;49.020;12.066;2022-07-01T09:03:38;1.50;;;1.10;;
8964;SDS011;4517;49.020;12.066;2022-07-01T09:06:04;1.50;;;1.30;;
8964;SDS011;4517;49.020;12.066;2022-07-01T09:08:39;1.53;;;1.03;;
8964;SDS011;4517;49.020;12.066;2022-07-01T09:11:16;1.33;;;0.90;;
8964;SDS011;4517;49.020;12.066;2022-07-01T09:13:42;1.10;;;0.80;;
8964;SDS011;4517;49.020;12.066;2022-07-01T09:16:12;1.00;;;0.80;;
8964;SDS011;4517;49.020;12.066;2022-07-01T09:18:40;1.23;;;1.07;;
8964;SDS011;4517;49.020;12.066;2022-07-01T09:21:12;1.20;;;0.83;;
8964;SDS011;4517;49.020;12.066;2022-07-01T09:23:41;2.50;;;1.00;;
8964;SDS011;4517;49.020;12.066;2022-07-01T09:26:08;1.20;;;0.87;;
8964;SDS011;4517;49.020;12.066;2022-07-01T09:28:51;3.53;;;0.87;;
8964;SDS011;4517;49.020;12.066;2022-07-01T09:31:22;1.27;;;0.90;;
8964;SDS011;4517;49.020;12.066;2022-07-01T09:34:05;1.40;;;1.00;;
8964;SDS011;4517;49.020;12.066;2022-07-01T09:36:37;2.33;;;1.70;;
8964;SDS011;4517;49.020;12.066;2022-07-01T09:39:04;2.13;;;1.00;;
8964;SDS011;4517;49.020;12.066;2022-07-01T09:41:37;1.70;;;1.40;;
8964;SDS011;4517;49.020;12.066;2022-07-01T09:44:03;2.27;;;1.10;;
8964;SDS011;4517;49.020;12.066;2022-07-01T09:46:30;5.23;;;1.20;;
8964;SDS011;4517;49.020;12.066;2022-07-01T09:48:56;2.30;;;1.07;;
8964;SDS011;4517;49.020;12.066;2022-07-01T09:51:21;1.70;;;1.43;;
8964;SDS011;4517;49.020;12.066;2022-07-01T09:53:47;1.53;;;1.30;;
8964;SDS011;4517;49.020;12.066;2022-07-01T09:56:12;1.53;;;1.17;;
8964;SDS011;4517;49.020;12.066;2022-07-01T09:58:38;1.60;;;1.50;;
8964;SDS011;4517;49.020;12.066;2022-07-01T10:01:07;1.20;;;1.10;;
8964;SDS011;4517;49.020;12.066;2022-07-01T10:03:34;1.40;;;1.30;;
8964;SDS011;4517;49.020;12.066;2022-07-01T10:06:08;2.10;;;1.90;;
8964;SDS011;4517;49.020;12.066;2022-07-01T10:14:15;1.60;;;1.50;;
8964;SDS011;4517;49.020;12.066;2022-07-01T10:16:44;1.30;;;1.20;;
8964;SDS011;4517;49.020;12.066;2022-07-01T10:21:45;1.30;;;1.20;;
8964;SDS011;4517;49.020;12.066;2022-07-01T10:24:12;1.50;;;1.40;;
8964;SDS011;4517;49.020;12.066;2022-07-01T10:26:39;1.20;;;1.10;;
8964;SDS011;4517;49.020;12.066;2022-07-01T10:29:08;1.30;;;1.20;;
8964;SDS011;4517;49.020;12.066;2022-07-01T10:31:54;1.37;;;1.27;;
8964;SDS011;4517;49.020;12.066;2022-07-01T10:34:25;1.57;;;1.47;;
8964;SDS011;4517;49.020;12.066;2022-07-01T10:37:03;2.10;;;2.00;;
8964;SDS011;4517;49.020;12.066;2022-07-01T10:39:48;2.20;;;1.90;;
8964;SDS011;4517;49.020;12.066;2022-07-01T10:42:31;2.33;;;2.13;;
8964;SDS011;4517;49.020;12.066;2022-07-01T10:45:17;2.00;;;1.77;;
8964;SDS011;4517;49.020;12.066;2022-07-01T10:47:42;2.27;;;2.07;;
8964;SDS011;4517;49.020;12.066;2022-07-01T10:50:14;1.63;;;1.53;;
8964;SDS011;4517;49.020;12.066;2022-07-01T10:55:46;1.83;;;1.73;;
8964;SDS011;4517;49.020;12.066;2022-07-01T10:58:13;2.50;;;1.83;;
8964;SDS011;4517;49.020;12.066;2022-07-01T11:00:43;2.57;;;1.90;;
8964;SDS011;4517;49.020;12.066;2022-07-01T11:03:12;1.83;;;1.73;;
8964;SDS011;4517;49.020;12.066;2022-07-01T11:05:42;2.50;;;1.80;;
8964;SDS011;4517;49.020;12.066;2022-07-01T11:08:09;1.87;;;1.60;;
8964;SDS011;4517;49.020;12.066;2022-07-01T11:10:37;1.60;;;1.50;;
8964;SDS011;4517;49.020;12.066;2022-07-01T11:13:04;1.40;;;1.30;;
8964;SDS011;4517;49.020;12.066;2022-07-01T11:15:29;2.37;;;1.80;;
8964;SDS011;4517;49.020;12.066;2022-07-01T11:17:56;1.63;;;1.53;;
8964;SDS011;4517;49.020;12.066;2022-07-01T11:20:24;1.50;;;1.40;;
8964;SDS011;4517;49.020;12.066;2022-07-01T11:22:50;2.40;;;1.43;;
8964;SDS011;4517;49.020;12.066;2022-07-01T11:25:17;1.87;;;1.20;;
8964;SDS011;4517;49.020;12.066;2022-07-01T11:27:47;1.30;;;1.10;;
8964;SDS011;4517;49.020;12.066;2022-07-01T11:30:15;1.60;;;1.50;;
8964;SDS011;4517;49.020;12.066;2022-07-01T11:32:43;1.30;;;1.20;;
8964;SDS011;4517;49.020;12.066;2022-07-01T11:35:21;1.50;;;1.40;;
8964;SDS011;4517;49.020;12.066;2022-07-01T11:40:56;2.50;;;1.40;;
8964;SDS011;4517;49.020;12.066;2022-07-01T11:43:24;2.23;;;1.20;;
8964;SDS011;4517;49.020;12.066;2022-07-01T11:45:52;1.30;;;1.17;;
8964;SDS011;4517;49.020;12.066;2022-07-01T11:48:28;1.57;;;1.37;;
8964;SDS011;4517;49.020;12.066;2022-07-01T11:50:55;1.20;;;1.10;;
8964;SDS011;4517;49.020;12.066;2022-07-01T11:53:21;1.10;;;1.00;;
8964;SDS011;4517;49.020;12.066;2022-07-01T11:55:47;1.13;;;0.93;;
8964;SDS011;4517;49.020;12.066;2022-07-01T11:58:13;1.10;;;0.77;;
8964;SDS011;4517;49.020;12.066;2022-07-01T12:00:38;1.17;;;0.90;;
8964;SDS011;4517;49.020;12.066;2022-07-01T12:03:04;1.10;;;1.00;;
8964;SDS011;4517;49.020;12.066;2022-07-01T12:05:32;1.23;;;1.13;;
8964;SDS011;4517;49.020;12.066;2022-07-01T12:07:59;0.90;;;0.80;;
8964;SDS011;4517;49.020;12.066;2022-07-01T12:10:25;1.00;;;0.80;;
8964;SDS011;4517;49.020;12.066;2022-07-01T12:12:53;1.93;;;0.93;;
8964;SDS011;4517;49.020;12.066;2022-07-01T12:15:19;0.80;;;0.67;;
8964;SDS011;4517;49.020;12.066;2022-07-01T12:17:45;1.10;;;1.00;;
8964;SDS011;4517;49.020;12.066;2022-07-01T12:20:12;2.40;;;1.00;;
8964;SDS011;4517;49.020;12.066;2022-07-01T12:22:37;1.33;;;1.17;;
8964;SDS011;4517;49.020;12.066;2022-07-01T12:25:08;1.10;;;0.70;;
8964;SDS011;4517;49.020;12.066;2022-07-01T12:27:38;1.30;;;0.60;;
8964;SDS011;4517;49.020;12.066;2022-07-01T12:30:08;1.73;;;0.80;;
8964;SDS011;4517;49.020;12.066;2022-07-01T12:32:36;1.10;;;0.90;;
8964;SDS011;4517;49.020;12.066;2022-07-01T12:35:04;6.10;;;1.17;;
8964;SDS011;4517;49.020;12.066;2022-07-01T12:37:51;2.03;;;1.00;;
8964;SDS011;4517;49.020;12.066;2022-07-01T12:40:20;0.70;;;0.70;;
8964;SDS011;4517;49.020;12.066;2022-07-01T12:42:50;0.83;;;0.83;;
8964;SDS011;4517;49.020;12.066;2022-07-01T12:45:16;0.80;;;0.70;;
8964;SDS011;4517;49.020;12.066;2022-07-01T12:47:47;1.23;;;0.93;;
8964;SDS011;4517;49.020;12.066;2022-07-01T12:50:27;2.30;;;0.90;;
8964;SDS011;4517;49.020;12.066;2022-07-01T12:53:09;1.20;;;0.80;;
8964;SDS011;4517;49.020;12.066;2022-07-01T12:55:37;1.43;;;0.90;;
8964;SDS011;4517;49.020;12.066;2022-07-01T12:58:05;0.90;;;0.80;;
8964;SDS011;4517;49.020;12.066;2022-07-01T13:00:42;1.43;;;1.10;;
8964;SDS011;4517;49.020;12.066;2022-07-01T13:03:09;1.10;;;1.00;;
8964;SDS011;4517;49.020;12.066;2022-07-01T13:05:36;1.50;;;0.80;;
8964;SDS011;4517;49.020;12.066;2022-07-01T13:08:04;1.27;;;0.80;;
8964;SDS011;4517;49.020;12.066;2022-07-01T13:10:31;1.63;;;1.17;;
8964;SDS011;4517;49.020;12.066;2022-07-01T13:12:57;1.10;;;1.00;;
8964;SDS011;4517;49.020;12.066;2022-07-01T13:15:23;1.20;;;1.10;;
8964;SDS011;4517;49.020;12.066;2022-07-01T13:17:49;1.53;;;1.00;;
8964;SDS011;4517;49.020;12.066;2022-07-01T13:20:15;1.13;;;1.00;;
8964;SDS011;4517;49.020;12.066;2022-07-01T13:22:41;1.30;;;1.20;;
8964;SDS011;4517;49.020;12.066;2022-07-01T13:25:08;1.20;;;1.10;;
8964;SDS011;4517;49.020;12.066;2022-07-01T13:27:35;1.30;;;1.10;;
8964;SDS011;4517;49.020;12.066;2022-07-01T13:30:01;1.10;;;1.00;;
8964;SDS011;4517;49.020;12.066;2022-07-01T13:32:28;2.03;;;1.50;;
8964;SDS011;4517;49.020;12.066;2022-07-01T13:34:54;1.23;;;1.13;;
8964;SDS011;4517;49.020;12.066;2022-07-01T13:37:19;2.07;;;1.50;;
8964;SDS011;4517;49.020;12.066;2022-07-01T13:39:45;1.33;;;1.23;;
8964;SDS011;4517;49.020;12.066;2022-07-01T13:42:11;1.90;;;1.20;;
8964;SDS011;4517;49.020;12.066;2022-07-01T13:44:36;1.27;;;1.17;;
8964;SDS011;4517;49.020;12.066;2022-07-01T13:47:02;2.07;;;1.30;;
8964;SDS011;4517;49.020;12.066;2022-07-01T13:49:30;1.63;;;0.83;;
8964;SDS011;4517;49.020;12.066;2022-07-01T13:51:56;1.00;;;0.90;;
8964;SDS011;4517;49.020;12.066;2022-07-01T13:54:21;0.90;;;0.80;;
8964;SDS011;4517;49.020;12.066;2022-07-01T13:56:47;2.87;;;1.03;;
8964;SDS011;4517;49.020;12.066;2022-07-01T13:59:13;1.27;;;0.97;;
8964;SDS011;4517;49.020;12.066;2022-07-01T14:01:39;1.10;;;1.00;;
8964;SDS011;4517;49.020;12.066;2022-07-01T14:04:04;1.53;;;1.10;;
8964;SDS011;4517;49.020;12.066;2022-07-01T14:06:30;1.03;;;0.93;;
8964;SDS011;4517;49.020;12.066;2022-07-01T14:08:56;1.60;;;1.40;;
8964;SDS011;4517;49.020;12.066;2022-07-01T14:11:21;1.47;;;1.20;;
8964;SDS011;4517;49.020;12.066;2022-07-01T14:13:47;0.90;;;0.80;;
8964;SDS011;4517;49.020;12.066;2022-07-01T14:16:13;1.53;;;1.27;;
8964;SDS011;4517;49.020;12.066;2022-07-01T14:18:39;2.20;;;1.00;;
8964;SDS011;4517;49.020;12.066;2022-07-01T14:21:04;1.20;;;0.70;;
8964;SDS011;4517;49.020;12.066;2022-07-01T14:23:31;1.10;;;1.00;;
8964;SDS011;4517;49.020;12.066;2022-07-01T14:25:57;1.20;;;1.10;;
8964;SDS011;4517;49.020;12.066;2022-07-01T14:28:23;1.20;;;1.00;;
8964;SDS011;4517;49.020;12.066;2022-07-01T14:30:48;4.90;;;1.00;;
8964;SDS011;4517;49.020;12.066;2022-07-01T14:33:14;2.20;;;1.13;;
8964;SDS011;4517;49.020;12.066;2022-07-01T14:35:41;1.57;;;1.20;;
8964;SDS011;4517;49.020;12.066;2022-07-01T14:38:06;2.03;;;1.00;;
8964;SDS011;4517;49.020;12.066;2022-07-01T14:40:32;0.80;;;0.80;;
8964;SDS011;4517;49.020;12.066;2022-07-01T14:42:58;1.07;;;0.90;;
8964;SDS011;4517;49.020;12.066;2022-07-01T14:45:24;1.30;;;1.20;;
8964;SDS011;4517;49.020;12.066;2022-07-01T14:47:50;2.60;;;1.27;;
8964;SDS011;4517;49.020;12.066;2022-07-01T14:50:15;1.10;;;1.00;;
8964;SDS011;4517;49.020;12.066;2022-07-01T14:52:41;2.20;;;2.00;;
8964;SDS011;4517;49.020;12.066;2022-07-01T14:55:07;2.07;;;1.57;;
8964;SDS011;4517;49.020;12.066;2022-07-01T14:57:34;1.30;;;1.20;;
8964;SDS011;4517;49.020;12.066;2022-07-01T15:00:00;2.93;;;1.90;;
8964;SDS011;4517;49.020;12.066;2022-07-01T15:02:27;5.60;;;1.20;;
8964;SDS011;4517;49.020;12.066;2022-07-01T15:04:53;1.57;;;1.37;;
8964;SDS011;4517;49.020;12.066;2022-07-01T15:07:18;1.33;;;1.23;;
8964;SDS011;4517;49.020;12.066;2022-07-01T15:09:44;2.13;;;1.47;;
8964;SDS011;4517;49.020;12.066;2022-07-01T15:12:10;1.60;;;1.50;;
8964;SDS011;4517;49.020;12.066;2022-07-01T15:14:35;2.07;;;1.60;;
8964;SDS011;4517;49.020;12.066;2022-07-01T15:17:01;1.67;;;1.20;;
8964;SDS011;4517;49.020;12.066;2022-07-01T15:19:27;1.83;;;1.73;;
8964;SDS011;4517;49.020;12.066;2022-07-01T15:21:53;1.47;;;1.27;;
8964;SDS011;4517;49.020;12.066;2022-07-01T15:24:20;1.00;;;0.90;;
8964;SDS011;4517;49.020;12.066;2022-07-01T15:26:46;3.03;;;1.67;;
8964;SDS011;4517;49.020;12.066;2022-07-01T15:29:12;3.87;;;2.13;;
8964;SDS011;4517;49.020;12.066;2022-07-01T15:31:38;1.80;;;1.40;;
8964;SDS011;4517;49.020;12.066;2022-07-01T15:34:03;2.03;;;1.67;;
8964;SDS011;4517;49.020;12.066;2022-07-01T15:36:29;2.13;;;1.63;;
8964;SDS011;4517;49.020;12.066;2022-07-01T15:38:55;3.00;;;1.70;;
8964;SDS011;4517;49.020;12.066;2022-07-01T15:41:23;1.30;;;1.20;;
8964;SDS011;4517;49.020;12.066;2022-07-01T15:43:52;2.03;;;1.33;;
8964;SDS011;4517;49.020;12.066;2022-07-01T15:46:21;1.40;;;1.30;;
8964;SDS011;4517;49.020;12.066;2022-07-01T15:48:46;2.73;;;1.13;;
8964;SDS011;4517;49.020;12.066;2022-07-01T15:51:13;1.40;;;1.30;;
8964;SDS011;4517;49.020;12.066;2022-07-01T15:53:39;1.33;;;1.13;;
8964;SDS011;4517;49.020;12.066;2022-07-01T15:56:05;1.43;;;1.30;;
8964;SDS011;4517;49.020;12.066;2022-07-01T15:58:30;1.10;;;1.00;;
8964;SDS011;4517;49.020;12.066;2022-07-01T16:00:57;2.13;;;0.90;;
8964;SDS011;4517;49.020;12.066;2022-07-01T16:03:23;1.10;;;1.00;;
8964;SDS011;4517;49.020;12.066;2022-07-01T16:05:50;1.40;;;1.00;;
8964;SDS011;4517;49.020;12.066;2022-07-01T16:08:26;0.80;;;0.80;;
8964;SDS011;4517;49.020;12.066;2022-07-01T16:11:10;3.67;;;1.00;;
8964;SDS011;4517;49.020;12.066;2022-07-01T16:13:37;1.00;;;0.70;;
8964;SDS011;4517;49.020;12.066;2022-07-01T16:16:06;1.10;;;0.90;;
8964;SDS011;4517;49.020;12.066;2022-07-01T16:18:33;0.90;;;0.77;;
8964;SDS011;4517;49.020;12.066;2022-07-01T16:21:00;1.10;;;0.70;;
8964;SDS011;4517;49.020;12.066;2022-07-01T16:23:28;1.43;;;0.90;;
8964;SDS011;4517;49.020;12.066;2022-07-01T16:25:58;1.57;;;0.87;;
8964;SDS011;4517;49.020;12.066;2022-07-01T16:28:27;0.80;;;0.80;;
8964;SDS011;4517;49.020;12.066;2022-07-01T16:30:54;9.70;;;0.80;;
8964;SDS011;4517;49.020;12.066;2022-07-01T16:33:22;1.13;;;1.00;;
8964;SDS011;4517;49.020;12.066;2022-07-01T16:35:48;1.40;;;0.70;;
8964;SDS011;4517;49.020;12.066;2022-07-01T16:38:53;0.97;;;0.87;;
8964;SDS011;4517;49.020;12.066;2022-07-01T16:41:15;1.50;;;0.90;;
8964;SDS011;4517;49.020;12.066;2022-07-01T16:43:47;1.40;;;1.13;;
8964;SDS011;4517;49.020;12.066;2022-07-01T16:46:20;1.00;;;0.83;;
8964;SDS011;4517;49.020;12.066;2022-07-01T16:48:48;1.20;;;1.00;;
8964;SDS011;4517;49.020;12.066;2022-07-01T16:51:16;1.90;;;0.83;;
8964;SDS011;4517;49.020;12.066;2022-07-01T16:53:43;1.40;;;1.10;;
8964;SDS011;4517;49.020;12.066;2022-07-01T16:56:44;1.17;;;0.80;;
8964;SDS011;4517;49.020;12.066;2022-07-01T16:59:05;1.30;;;0.80;;
8964;SDS011;4517;49.020;12.066;2022-07-01T17:01:31;1.50;;;1.40;;
8964;SDS011;4517;49.020;12.066;2022-07-01T17:03:58;1.27;;;1.13;;
8964;SDS011;4517;49.020;12.066;2022-07-01T17:06:24;1.67;;;0.97;;
8964;SDS011;4517;49.020;12.066;2022-07-01T17:08:54;1.10;;;0.80;;
8964;SDS011;4517;49.020;12.066;2022-07-01T17:11:23;1.50;;;1.00;;
8964;SDS011;4517;49.020;12.066;2022-07-01T17:13:50;1.10;;;0.87;;
8964;SDS011;4517;49.020;12.066;2022-07-01T17:16:16;1.20;;;0.90;;
8964;SDS011;4517;49.020;12.066;2022-07-01T17:18:43;2.23;;;1.20;;
8964;SDS011;4517;49.020;12.066;2022-07-01T17:21:16;6.13;;;1.23;;
8964;SDS011;4517;49.020;12.066;2022-07-01T17:23:52;1.53;;;1.10;;
8964;SDS011;4517;49.020;12.066;2022-07-01T17:26:19;1.47;;;1.23;;
8964;SDS011;4517;49.020;12.066;2022-07-01T17:28:50;1.17;;;0.90;;
8964;SDS011;4517;49.020;12.066;2022-07-01T17:33:51;1.47;;;1.00;;
8964;SDS011;4517;49.020;12.066;2022-07-01T17:36:21;1.30;;;1.10;;
8964;SDS011;4517;49.020;12.066;2022-07-01T17:39:01;1.73;;;1.20;;
8964;SDS011;4517;49.020;12.066;2022-07-01T17:41:34;1.20;;;0.80;;
8964;SDS011;4517;49.020;12.066;2022-07-01T17:44:02;1.30;;;1.10;;
8964;SDS011;4517;49.020;12.066;2022-07-01T17:46:36;1.03;;;0.90;;
8964;SDS011;4517;49.020;12.066;2022-07-01T17:49:03;2.33;;;1.30;;
8964;SDS011;4517;49.020;12.066;2022-07-01T17:51:30;1.93;;;1.03;;
8964;SDS011;4517;49.020;12.066;2022-07-01T17:53:57;2.27;;;1.10;;
8964;SDS011;4517;49.020;12.066;2022-07-01T17:56:24;1.27;;;1.03;;
8964;SDS011;4517;49.020;12.066;2022-07-01T17:58:53;2.33;;;0.93;;
8964;SDS011;4517;49.020;12.066;2022-07-01T18:01:24;3.20;;;1.90;;
8964;SDS011;4517;49.020;12.066;2022-07-01T18:03:51;2.10;;;1.23;;